Time;durP1;ratioP1;P1;durP2;ratioP2;P2;SDS_P1;SDS_P2;PMS_P1;PMS_P2;Temp;Humidity;BMP_temperature;BMP_pressure;BME280_temperature;BME280_humidity;BME280_pressure;Samples;Min_cycle;Max_cycle;Signal;HPM_P1;HPM_P2
2021/03/11 00:00:46;;;;;;;26.43;22.00;;;;;;;6.51;52.54;97573.44;8333035;28;20209;-63
2021/03/11 00:04:48;;;;;;;25.07;20.90;;;;;;;6.47;52.72;97571.84;8334912;28;20255;-62
2021/03/11 00:08:51;;;;;;;25.30;21.70;;;;;;;6.62;52.34;97573.88;8336239;28;20215;-63
2021/03/11 00:12:53;;;;;;;24.13;21.53;;;;;;;6.70;51.84;97567.63;8335759;28;20220;-62
2021/03/11 00:16:55;;;;;;;25.83;21.07;;;;;;;6.63;52.09;97564.44;8335610;28;20228;-62
2021/03/11 00:20:57;;;;;;;24.53;21.53;;;;;;;6.71;51.84;97549.56;8335372;28;20226;-63
2021/03/11 00:25:10;;;;;;;23.90;20.67;;;;;;;6.17;53.09;97535.13;8335696;28;20640;-63
2021/03/11 00:29:12;;;;;;;24.00;21.40;;;;;;;6.42;52.45;97538.56;8334661;28;20212;-63
2021/03/11 00:33:13;;;;;;;25.20;21.37;;;;;;;6.60;52.20;97541.38;8334423;28;20228;-63
2021/03/11 00:37:15;;;;;;;25.67;21.93;;;;;;;6.55;52.23;97517.53;8334894;28;20276;-63
2021/03/11 00:41:18;;;;;;;24.77;22.07;;;;;;;6.39;52.98;97512.94;8334391;28;20213;-63
2021/03/11 00:45:20;;;;;;;26.83;21.53;;;;;;;6.22;53.35;97503.22;8334169;28;20209;-63
2021/03/11 00:49:22;;;;;;;24.37;21.77;;;;;;;6.13;53.71;97500.13;8334097;28;20610;-62
2021/03/11 00:53:24;;;;;;;27.40;22.13;;;;;;;6.30;53.53;97489.28;8333782;28;20287;-62
2021/03/11 00:57:27;;;;;;;22.77;19.63;;;;;;;6.57;52.34;97480.59;8333598;28;20263;-62
2021/03/11 01:01:30;;;;;;;24.13;20.67;;;;;;;6.70;52.15;97475.00;8334032;28;20526;-62
2021/03/11 01:05:33;;;;;;;22.87;20.40;;;;;;;7.00;51.08;97467.88;8333524;28;20208;-62
2021/03/11 01:09:35;;;;;;;26.57;20.60;;;;;;;6.72;51.86;97460.34;8332507;28;20208;-62
2021/03/11 01:13:39;;;;;;;24.63;20.23;;;;;;;6.69;51.63;97443.28;8332721;28;20571;-62
2021/03/11 01:17:41;;;;;;;23.60;18.83;;;;;;;6.99;51.69;97436.16;8333785;28;20212;-62
2021/03/11 01:21:43;;;;;;;22.63;20.20;;;;;;;7.15;51.11;97426.06;8333533;28;20651;-62
2021/03/11 01:25:50;;;;;;;24.13;20.03;;;;;;;6.77;52.03;97424.97;8334128;28;20192;-62
2021/03/11 01:29:53;;;;;;;27.43;19.93;;;;;;;7.23;50.81;97439.50;8333698;28;20211;-62
2021/03/11 01:33:55;;;;;;;25.77;20.30;;;;;;;6.90;51.74;97425.38;8332828;28;20683;-62
2021/03/11 01:37:57;;;;;;;24.30;20.43;;;;;;;6.79;52.15;97411.16;8332003;28;20193;-62
2021/03/11 01:41:59;;;;;;;22.57;19.50;;;;;;;7.26;51.28;97414.53;8332140;28;20247;-62
2021/03/11 01:46:02;;;;;;;25.60;20.00;;;;;;;7.40;50.76;97410.47;8332314;28;20217;-62
2021/03/11 01:50:04;;;;;;;22.13;19.53;;;;;;;7.28;50.99;97399.84;8331208;28;20295;-62
2021/03/11 01:54:08;;;;;;;22.43;20.07;;;;;;;6.91;52.08;97391.84;8331598;28;20232;-62
2021/03/11 01:58:10;;;;;;;20.67;18.47;;;;;;;7.24;51.08;97389.66;8331949;28;20303;-62
2021/03/11 02:02:13;;;;;;;23.07;19.20;;;;;;;7.20;51.06;97382.97;8331756;28;20207;-62
2021/03/11 02:06:16;;;;;;;22.93;19.07;;;;;;;7.19;51.25;97365.81;8331120;28;20290;-62
2021/03/11 02:10:21;;;;;;;20.13;18.00;;;;;;;7.27;50.97;97349.22;8330884;28;20236;-62
2021/03/11 02:14:28;;;;;;;21.97;18.40;;;;;;;7.21;50.98;97348.56;8331676;28;20220;-62
2021/03/11 02:18:35;;;;;;;22.90;17.90;;;;;;;7.24;50.93;97343.31;8331375;28;20251;-62
2021/03/11 02:22:48;;;;;;;21.27;18.93;;;;;;;7.32;50.46;97339.59;8329985;28;20268;-62
2021/03/11 02:27:04;;;;;;;23.17;18.27;;;;;;;7.26;50.52;97337.28;8331203;28;20509;-62
2021/03/11 02:31:07;;;;;;;21.47;19.17;;;;;;;7.10;51.20;97319.00;8331176;28;20598;-62
2021/03/11 02:35:11;;;;;;;20.67;18.23;;;;;;;7.33;50.65;97316.34;8330756;28;20251;-62
2021/03/11 02:39:15;;;;;;;21.90;18.80;;;;;;;7.26;50.54;97303.78;8331847;28;20220;-62
2021/03/11 02:43:17;;;;;;;23.50;18.97;;;;;;;7.42;50.11;97300.50;8330324;28;20220;-63
2021/03/11 02:47:20;;;;;;;21.57;17.97;;;;;;;7.39;49.97;97285.16;8330231;28;20215;-62
2021/03/11 02:51:22;;;;;;;20.00;17.90;;;;;;;7.59;49.67;97286.06;8330722;28;20294;-64
2021/03/11 02:55:25;;;;;;;19.93;17.83;;;;;;;7.61;49.48;97276.50;8330116;28;20228;-62
2021/03/11 02:59:27;;;;;;;21.60;17.87;;;;;;;7.68;49.33;97270.19;8329930;28;20205;-62
2021/03/11 03:03:30;;;;;;;20.30;17.53;;;;;;;7.52;49.65;97259.72;8329823;28;20216;-62
2021/03/11 03:07:32;;;;;;;20.63;17.47;;;;;;;7.49;49.55;97248.72;8329462;28;20212;-62
2021/03/11 03:11:36;;;;;;;21.43;18.50;;;;;;;7.57;49.33;97234.56;8328903;28;20220;-62
2021/03/11 03:15:38;;;;;;;23.00;18.23;;;;;;;7.68;49.04;97238.44;8330578;28;20232;-62
2021/03/11 03:19:42;;;;;;;20.17;17.67;;;;;;;7.85;48.77;97248.81;8329288;28;20659;-62
2021/03/11 03:23:44;;;;;;;19.03;16.97;;;;;;;7.89;48.84;97244.38;8329531;28;20204;-62
2021/03/11 03:27:46;;;;;;;18.50;16.50;;;;;;;7.78;49.08;97229.38;8328867;28;20208;-62
2021/03/11 03:31:48;;;;;;;21.30;16.47;;;;;;;7.78;49.46;97225.06;8329257;28;20216;-62
2021/03/11 03:35:51;;;;;;;19.73;16.83;;;;;;;7.91;49.39;97222.75;8336911;28;20232;-62
2021/03/11 03:39:53;;;;;;;19.13;16.30;;;;;;;7.75;49.87;97224.34;8335436;28;20283;-62
2021/03/11 03:43:55;;;;;;;19.80;17.67;;;;;;;7.79;49.79;97223.34;8335721;28;20308;-62
2021/03/11 03:47:58;;;;;;;22.10;18.23;;;;;;;7.70;50.37;97214.25;8335759;28;20644;-62
2021/03/11 03:52:02;;;;;;;21.73;18.97;;;;;;;7.78;51.00;97201.84;8336019;28;20215;-63
2021/03/11 03:56:10;;;;;;;19.30;17.30;;;;;;;7.50;51.96;97197.13;8335083;28;20327;-62
2021/03/11 04:00:14;;;;;;;21.23;17.23;;;;;;;7.31;52.95;97181.63;8335470;28;20212;-63
2021/03/11 04:04:16;;;;;;;21.93;17.00;;;;;;;7.03;54.13;97180.25;8335329;28;20652;-62
2021/03/11 04:08:20;;;;;;;18.20;16.27;;;;;;;7.06;54.53;97174.09;8335404;28;20616;-62
2021/03/11 04:12:23;;;;;;;21.37;17.97;;;;;;;7.09;54.52;97176.56;8335324;28;20228;-62
2021/03/11 04:16:25;;;;;;;19.87;17.73;;;;;;;7.13;55.29;97156.69;8334791;28;20224;-63
2021/03/11 04:20:27;;;;;;;20.07;17.00;;;;;;;7.32;55.30;97149.81;8334602;28;20219;-63
2021/03/11 04:24:30;;;;;;;19.83;17.73;;;;;;;7.13;55.72;97149.78;8334981;28;20212;-63
2021/03/11 04:28:32;;;;;;;21.07;17.97;;;;;;;7.05;56.29;97144.13;8335777;28;20212;-63
2021/03/11 04:32:36;;;;;;;21.93;18.43;;;;;;;7.02;56.68;97137.38;8334826;28;20200;-63
2021/03/11 04:36:38;;;;;;;19.10;16.83;;;;;;;6.87;57.36;97127.72;8334522;28;20228;-63
2021/03/11 04:40:41;;;;;;;21.20;17.53;;;;;;;6.81;57.54;97135.72;8334762;28;20211;-63
2021/03/11 04:44:43;;;;;;;19.70;16.67;;;;;;;6.92;57.41;97122.41;8334404;28;20334;-63
2021/03/11 04:48:45;;;;;;;21.67;17.03;;;;;;;6.82;58.07;97134.84;8335380;28;20215;-63
2021/03/11 04:52:47;;;;;;;19.17;17.17;;;;;;;6.74;58.19;97119.72;8334728;28;20624;-63
2021/03/11 04:56:50;;;;;;;19.53;16.00;;;;;;;6.70;59.01;97107.03;8334536;28;20239;-63
2021/03/11 05:00:54;;;;;;;19.63;17.47;;;;;;;6.77;58.71;97101.56;8333272;28;20224;-63
2021/03/11 05:04:56;;;;;;;19.30;17.30;;;;;;;6.55;59.60;97100.78;8334816;28;20219;-63
2021/03/11 05:08:58;;;;;;;20.97;17.93;;;;;;;6.39;60.13;97083.41;8333495;28;20209;-63
2021/03/11 05:13:01;;;;;;;21.60;17.30;;;;;;;6.49;60.01;97080.47;8333629;28;20236;-63
2021/03/11 05:17:03;;;;;;;21.93;17.17;;;;;;;6.68;59.65;97083.09;8333372;28;20236;-63
2021/03/11 05:21:06;;;;;;;23.30;18.40;;;;;;;6.42;60.19;97064.47;8334029;28;20208;-63
2021/03/11 05:25:13;;;;;;;20.70;18.50;;;;;;;6.63;60.02;97055.84;8334002;28;20648;-63
2021/03/11 05:29:16;;;;;;;21.70;17.50;;;;;;;6.77;59.31;97054.41;8334436;28;20264;-64
2021/03/11 05:33:18;;;;;;;19.73;17.63;;;;;;;6.59;59.56;97056.03;8333585;28;20215;-63
2021/03/11 05:37:20;;;;;;;20.23;17.67;;;;;;;6.59;59.45;97053.47;8333637;28;20236;-63
2021/03/11 05:41:22;;;;;;;19.80;17.70;;;;;;;6.90;58.47;97050.38;8333826;28;20605;-63
2021/03/11 05:45:26;;;;;;;20.27;17.33;;;;;;;6.85;58.51;97047.19;8333115;28;20242;-63
2021/03/11 05:49:30;;;;;;;26.80;17.97;;;;;;;7.05;57.68;97052.28;8334267;28;20215;-63
2021/03/11 05:53:33;;;;;;;19.60;17.50;;;;;;;6.87;58.31;97063.38;8332611;28;20212;-63
2021/03/11 05:57:38;;;;;;;22.07;18.23;;;;;;;6.52;58.81;97050.31;8333182;28;20228;-63
2021/03/11 06:01:41;;;;;;;20.70;17.73;;;;;;;6.86;58.05;97061.72;8332982;28;20193;-63
2021/03/11 06:05:43;;;;;;;19.70;17.70;;;;;;;7.09;57.78;97065.84;8332141;28;20628;-63
2021/03/11 06:09:47;;;;;;;21.07;17.57;;;;;;;7.18;57.24;97055.16;8331784;28;20568;-64
2021/03/11 06:13:50;;;;;;;18.93;16.87;;;;;;;7.18;57.35;97065.44;8332871;28;20238;-63
2021/03/11 06:17:53;;;;;;;22.00;19.00;;;;;;;7.04;57.72;97058.34;8332828;28;20224;-63
2021/03/11 06:21:55;;;;;;;19.70;17.33;;;;;;;7.21;57.96;97038.72;8331552;28;20209;-66
2021/03/11 06:25:58;;;;;;;20.27;18.07;;;;;;;7.13;58.38;97031.34;8331670;28;20227;-63
2021/03/11 06:30:00;;;;;;;20.80;18.00;;;;;;;7.17;58.51;97032.88;8332113;28;20558;-63
2021/03/11 06:34:03;;;;;;;20.00;17.90;;;;;;;6.76;59.17;97016.69;8330711;28;20245;-63
2021/03/11 06:38:05;;;;;;;20.30;18.17;;;;;;;6.83;59.67;97013.81;8331122;28;20212;-63
2021/03/11 06:42:09;;;;;;;20.33;18.33;;;;;;;7.02;59.39;97025.84;8331267;28;20242;-63
2021/03/11 06:46:11;;;;;;;23.33;18.50;;;;;;;6.79;59.98;97006.28;8332394;28;20223;-63
2021/03/11 06:50:13;;;;;;;21.50;18.67;;;;;;;6.80;59.91;97005.38;8330221;28;20295;-63
2021/03/11 06:54:15;;;;;;;20.20;18.00;;;;;;;6.88;60.20;96994.75;8329853;28;20213;-63
2021/03/11 06:58:18;;;;;;;23.30;19.43;;;;;;;6.64;60.72;96993.19;8330982;28;20231;-63
2021/03/11 07:02:21;;;;;;;20.57;18.37;;;;;;;6.76;60.35;97001.25;8329846;28;20212;-63
2021/03/11 07:06:32;;;;;;;19.03;17.03;;;;;;;7.14;60.26;96986.69;8329252;28;20208;-63
2021/03/11 07:10:36;;;;;;;18.17;16.37;;;;;;;7.23;58.90;96991.41;8329306;28;20232;-64
2021/03/11 07:14:38;;;;;;;19.67;17.60;;;;;;;7.61;57.95;97000.78;8328769;28;20247;-63
2021/03/11 07:18:40;;;;;;;19.87;17.33;;;;;;;7.37;57.89;97011.34;8329303;28;20632;-64
2021/03/11 07:22:59;;;;;;;22.10;17.73;;;;;;;7.35;58.30;97002.00;8328511;28;20204;-63
2021/03/11 07:27:01;;;;;;;19.90;17.80;;;;;;;7.27;58.84;96991.25;8328909;28;20288;-64
2021/03/11 07:31:03;;;;;;;21.43;19.13;;;;;;;7.13;59.61;96981.59;8328526;28;20548;-64
2021/03/11 07:35:06;;;;;;;20.73;18.23;;;;;;;7.19;59.79;96974.41;8328644;28;20381;-63
2021/03/11 07:39:10;;;;;;;20.47;17.67;;;;;;;7.42;59.56;96973.34;8328576;28;20263;-64
2021/03/11 07:43:12;;;;;;;20.13;17.33;;;;;;;7.61;58.69;96962.13;8328745;28;20231;-64
2021/03/11 07:47:14;;;;;;;19.03;15.77;;;;;;;7.57;59.05;96956.28;8328688;28;20213;-64
2021/03/11 07:51:17;;;;;;;20.07;16.10;;;;;;;7.82;58.91;96967.97;8328281;28;20236;-64
2021/03/11 07:55:20;;;;;;;16.87;14.57;;;;;;;8.07;57.87;96971.94;8328365;28;20308;-64
2021/03/11 07:59:22;;;;;;;18.33;13.83;;;;;;;8.09;57.83;96963.22;8328233;28;20211;-64
2021/03/11 08:03:24;;;;;;;17.43;13.57;;;;;;;8.22;57.56;96971.16;8328020;28;20204;-64
2021/03/11 08:07:28;;;;;;;17.13;13.47;;;;;;;8.37;57.16;96972.13;8313301;28;20255;-62
2021/03/11 08:11:35;;;;;;;14.23;12.70;;;;;;;8.37;57.46;96965.22;8295047;28;20226;-72
2021/03/11 08:15:38;;;;;;;13.50;12.10;;;;;;;8.59;57.60;96951.25;8295987;28;20241;-64
2021/03/11 08:19:49;;;;;;;18.10;12.50;;;;;;;8.75;57.52;96965.00;8296477;28;20256;-68
2021/03/11 08:23:51;;;;;;;13.57;11.27;;;;;;;9.00;56.90;96961.97;8301714;28;20201;-70
2021/03/11 08:27:54;;;;;;;14.73;12.30;;;;;;;8.85;57.65;96944.69;8301307;28;20235;-62
2021/03/11 08:31:56;;;;;;;14.73;11.43;;;;;;;8.67;58.60;96936.19;8301406;28;20205;-62
2021/03/11 08:35:58;;;;;;;15.53;12.33;;;;;;;8.58;59.09;96927.16;8301775;28;20570;-62
2021/03/11 08:40:00;;;;;;;14.57;11.13;;;;;;;8.73;58.92;96922.13;8302014;28;20205;-64
2021/03/11 08:44:03;;;;;;;14.43;12.03;;;;;;;8.86;58.86;96910.22;8301191;28;20205;-64
2021/03/11 08:48:12;;;;;;;13.03;10.27;;;;;;;8.78;59.10;96909.81;8301237;28;20216;-64
2021/03/11 08:52:40;;;;;;;12.50;9.33;;;;;;;9.10;58.43;96923.53;8300794;28;20205;-64
2021/03/11 08:56:42;;;;;;;9.63;7.70;;;;;;;9.28;57.92;96915.69;8302261;28;20573;-64
2021/03/11 09:00:58;;;;;;;8.70;6.90;;;;;;;9.43;57.80;96911.41;8301663;28;20213;-64
2021/03/11 09:05:00;;;;;;;10.00;6.63;;;;;;;9.46;57.81;96893.13;8301830;28;20220;-64
2021/03/11 09:09:02;;;;;;;6.37;5.57;;;;;;;9.64;57.65;96874.00;8301388;28;20546;-65
2021/03/11 09:13:04;;;;;;;5.87;4.17;;;;;;;9.72;58.35;96874.38;8300005;28;20229;-65
2021/03/11 09:17:09;;;;;;;5.23;3.60;;;;;;;9.88;58.21;96876.06;8300327;28;20273;-64
2021/03/11 09:21:11;;;;;;;8.33;3.50;;;;;;;9.93;58.51;96886.97;8301228;28;20197;-64
2021/03/11 09:25:14;;;;;;;4.57;3.30;;;;;;;10.05;57.83;96875.91;8301159;28;20587;-64
2021/03/11 09:29:16;;;;;;;4.67;3.33;;;;;;;10.20;57.95;96863.78;8301519;28;20251;-64
2021/03/11 09:33:21;;;;;;;4.63;2.80;;;;;;;10.21;57.40;96872.41;8299603;28;20205;-65
2021/03/11 09:37:56;;;;;;;4.03;2.97;;;;;;;10.39;56.89;96854.94;8301290;28;20565;-65
2021/03/11 09:42:08;;;;;;;5.67;3.10;;;;;;;10.39;57.64;96858.38;8199557;29;20210;-64
2021/03/11 09:46:12;;;;;;;3.80;3.03;;;;;;;10.43;57.50;96859.00;8250366;28;20209;-64
2021/03/11 09:50:15;;;;;;;4.40;3.17;;;;;;;10.60;57.02;96855.38;8299357;28;20205;-65
2021/03/11 09:54:17;;;;;;;5.97;2.70;;;;;;;10.71;56.83;96834.84;8299021;28;20205;-64
2021/03/11 09:58:20;;;;;;;3.10;2.80;;;;;;;10.91;56.23;96831.00;8299969;28;20229;-64
2021/03/11 10:02:22;;;;;;;3.37;2.80;;;;;;;10.95;56.50;96830.69;8298941;28;20224;-63
2021/03/11 10:06:25;;;;;;;3.87;2.53;;;;;;;11.22;56.17;96826.44;8299881;28;20209;-63
2021/03/11 10:10:27;;;;;;;4.13;2.93;;;;;;;11.28;56.38;96818.25;8299348;28;20244;-64
2021/03/11 10:14:30;;;;;;;2.90;2.57;;;;;;;11.38;56.37;96826.25;8299745;28;20220;-64
2021/03/11 10:18:32;;;;;;;7.77;2.23;;;;;;;11.63;56.16;96825.44;8299611;28;20229;-62
2021/03/11 10:22:35;;;;;;;6.77;2.53;;;;;;;11.84;56.13;96811.06;8298131;28;20212;-63
2021/03/11 10:26:36;;;;;;;7.53;2.33;;;;;;;11.73;56.08;96821.31;8297494;28;20251;-63
2021/03/11 10:30:40;;;;;;;4.03;1.80;;;;;;;11.74;56.55;96808.22;8298307;28;20212;-62
2021/03/11 10:34:46;;;;;;;17.97;2.20;;;;;;;11.71;56.65;96782.53;8297987;28;20336;-64
2021/03/11 10:39:09;;;;;;;5.43;2.17;;;;;;;11.76;56.79;96794.34;8298552;28;20586;-63
2021/03/11 10:43:19;;;;;;;3.20;2.00;;;;;;;11.73;56.94;96788.44;8312103;28;20208;-62
2021/03/11 10:47:21;;;;;;;3.40;2.70;;;;;;;11.74;57.11;96786.66;8331281;28;20196;-62
2021/03/11 10:51:25;;;;;;;5.30;2.53;;;;;;;11.78;57.01;96788.09;8330594;28;20239;-62
2021/03/11 10:55:31;;;;;;;3.93;1.97;;;;;;;11.73;57.12;96795.38;8330806;28;20244;-63
2021/03/11 10:59:49;;;;;;;6.17;3.17;;;;;;;11.76;57.21;96797.75;8331003;28;20200;-62
2021/03/11 11:03:53;;;;;;;2.63;1.90;;;;;;;11.71;57.55;96803.28;8328166;28;20205;-62
2021/03/11 11:07:55;;;;;;;3.40;2.10;;;;;;;11.71;57.46;96807.63;8330281;28;20208;-62
2021/03/11 11:12:00;;;;;;;5.37;2.80;;;;;;;11.73;57.34;96792.78;8328965;28;20299;-62
2021/03/11 11:16:02;;;;;;;2.90;1.53;;;;;;;11.76;57.39;96784.78;8329941;28;20714;-61
2021/03/11 11:20:06;;;;;;;2.30;1.80;;;;;;;11.78;57.39;96779.50;8329582;28;20244;-64
2021/03/11 11:24:09;;;;;;;3.27;1.90;;;;;;;11.79;57.06;96763.03;8329557;28;20208;-61
2021/03/11 11:28:12;;;;;;;3.63;1.80;;;;;;;12.00;56.24;96771.13;8330300;28;20616;-62
2021/03/11 11:32:14;;;;;;;4.33;2.10;;;;;;;12.12;56.23;96763.28;8329408;28;20244;-61
2021/03/11 11:36:17;;;;;;;3.47;1.90;;;;;;;12.07;56.24;96768.00;8330648;28;20331;-63
2021/03/11 11:40:19;;;;;;;4.67;2.00;;;;;;;12.08;56.70;96771.41;8328701;28;20215;-63
2021/03/11 11:44:23;;;;;;;3.53;2.00;;;;;;;12.20;56.55;96767.94;8329231;28;20204;-64
2021/03/11 11:48:25;;;;;;;3.30;2.23;;;;;;;12.12;57.41;96752.91;8327675;28;20307;-63
2021/03/11 11:52:27;;;;;;;8.73;1.57;;;;;;;12.15;58.01;96764.00;8328774;28;20216;-63
2021/03/11 11:56:29;;;;;;;4.20;1.53;;;;;;;12.06;58.61;96737.78;8334868;28;20224;-63
2021/03/11 12:00:31;;;;;;;2.80;1.40;;;;;;;12.07;59.74;96736.84;8334965;28;20205;-61
2021/03/11 12:04:34;;;;;;;5.10;1.70;;;;;;;11.97;60.56;96753.97;8335623;28;20211;-61
2021/03/11 12:08:36;;;;;;;5.93;1.40;;;;;;;11.91;61.50;96742.25;8335155;28;20212;-63
2021/03/11 12:12:39;;;;;;;1.90;1.27;;;;;;;12.00;61.50;96719.22;8334459;28;20258;-62
2021/03/11 12:16:42;;;;;;;2.47;1.47;;;;;;;12.02;61.53;96722.53;8335162;28;20263;-60
2021/03/11 12:20:44;;;;;;;3.50;1.90;;;;;;;12.03;61.57;96747.53;8335524;28;20291;-62
2021/03/11 12:24:46;;;;;;;4.20;1.40;;;;;;;12.04;60.98;96757.00;8333587;28;20197;-61
2021/03/11 12:28:49;;;;;;;2.40;1.67;;;;;;;12.14;60.71;96758.00;8332868;28;20244;-61
2021/03/11 12:32:51;;;;;;;2.37;1.60;;;;;;;12.27;60.56;96729.44;8333892;28;20201;-61
2021/03/11 12:36:54;;;;;;;3.43;1.77;;;;;;;12.26;60.28;96720.81;8331783;28;20243;-61
2021/03/11 12:40:56;;;;;;;3.43;1.67;;;;;;;12.43;60.18;96710.97;8332897;28;20263;-61
2021/03/11 12:44:57;;;;;;;4.13;1.70;;;;;;;12.45;59.39;96714.28;8332584;28;20224;-61
2021/03/11 12:49:00;;;;;;;4.87;1.70;;;;;;;12.55;59.67;96691.13;8333113;28;20212;-61
2021/03/11 12:53:02;;;;;;;5.77;1.40;;;;;;;12.46;59.66;96695.19;8331252;28;20604;-61
2021/03/11 12:57:04;;;;;;;3.27;1.37;;;;;;;12.54;60.09;96684.25;8332501;28;20228;-61
2021/03/11 13:01:06;;;;;;;3.23;1.10;;;;;;;12.47;60.00;96668.28;8333495;28;20663;-61
2021/03/11 13:05:10;;;;;;;19.63;1.20;;;;;;;12.56;59.88;96652.03;8329827;28;20219;-61
2021/03/11 13:09:12;;;;;;;3.37;0.90;;;;;;;12.85;58.72;96659.44;8332359;28;20200;-61
2021/03/11 13:13:14;;;;;;;2.57;2.00;;;;;;;12.94;58.62;96640.56;8333021;28;20652;-62
2021/03/11 13:17:16;;;;;;;1.40;0.90;;;;;;;12.83;58.61;96632.75;8331049;28;20224;-61
2021/03/11 13:21:19;;;;;;;1.03;0.80;;;;;;;12.90;58.82;96646.94;8332428;28;20594;-62
2021/03/11 13:25:22;;;;;;;1.50;0.77;;;;;;;12.86;59.01;96664.53;8332305;28;20209;-61
2021/03/11 13:29:23;;;;;;;0.90;0.70;;;;;;;12.70;59.47;96648.44;8333316;28;20612;-62
2021/03/11 13:33:25;;;;;;;1.47;0.90;;;;;;;12.67;59.47;96656.44;8331668;28;20640;-62
2021/03/11 13:37:29;;;;;;;1.20;0.73;;;;;;;12.65;59.67;96669.53;8331675;28;20267;-64
2021/03/11 13:41:31;;;;;;;0.80;0.70;;;;;;;12.69;59.18;96649.38;8331827;28;20502;-63
2021/03/11 13:45:33;;;;;;;5.83;0.77;;;;;;;12.57;59.85;96651.09;8332216;28;20298;-64
2021/03/11 13:49:35;;;;;;;0.70;0.70;;;;;;;12.54;59.98;96642.69;8331694;28;20637;-63
2021/03/11 13:53:38;;;;;;;2.27;0.83;;;;;;;12.64;59.90;96638.47;8332346;28;20550;-63
2021/03/11 13:57:40;;;;;;;1.63;0.90;;;;;;;12.66;59.74;96619.25;8331605;28;20664;-63
2021/03/11 14:01:42;;;;;;;2.07;0.70;;;;;;;12.73;59.15;96598.84;8330759;28;20209;-64
2021/03/11 14:05:44;;;;;;;2.67;0.70;;;;;;;12.80;59.19;96594.84;8330473;28;20252;-63
2021/03/11 14:09:47;;;;;;;2.83;0.83;;;;;;;12.74;59.15;96603.09;8330907;28;20204;-64
2021/03/11 14:13:49;;;;;;;0.63;0.60;;;;;;;12.77;58.94;96602.84;8331030;28;20211;-63
2021/03/11 14:17:51;;;;;;;1.10;0.70;;;;;;;12.79;59.07;96602.75;8329389;28;20246;-61
2021/03/11 14:21:53;;;;;;;0.90;0.60;;;;;;;12.77;59.19;96604.63;8331023;28;20287;-61
2021/03/11 14:25:56;;;;;;;1.03;0.77;;;;;;;12.77;59.42;96605.44;8330179;28;20231;-61
2021/03/11 14:29:58;;;;;;;1.73;1.23;;;;;;;12.73;60.36;96609.22;8329728;28;20262;-61
2021/03/11 14:34:00;;;;;;;1.13;0.70;;;;;;;12.71;61.49;96588.56;8329415;28;20232;-62
2021/03/11 14:38:02;;;;;;;1.13;0.63;;;;;;;12.77;61.61;96594.25;8329553;28;20221;-61
2021/03/11 14:42:06;;;;;;;1.13;1.00;;;;;;;12.68;62.86;96586.22;8329069;28;20265;-61
2021/03/11 14:46:07;;;;;;;1.10;0.77;;;;;;;12.67;62.86;96589.72;8329550;28;20216;-61
2021/03/11 14:50:10;;;;;;;0.87;0.80;;;;;;;12.58;63.08;96572.25;8330057;28;20238;-61
2021/03/11 14:54:12;;;;;;;2.40;0.90;;;;;;;12.66;62.61;96569.06;8328881;28;20204;-61
2021/03/11 14:58:15;;;;;;;1.00;0.70;;;;;;;12.82;61.63;96559.19;8329580;28;20354;-60
2021/03/11 15:02:17;;;;;;;2.00;0.50;;;;;;;12.87;61.51;96551.88;8329068;28;20213;-61
2021/03/11 15:06:19;;;;;;;0.80;0.60;;;;;;;12.97;61.34;96546.00;8328633;28;20231;-61
2021/03/11 15:10:27;;;;;;;0.93;0.70;;;;;;;12.87;61.44;96545.84;8328797;28;20224;-61
2021/03/11 15:14:30;;;;;;;1.23;0.67;;;;;;;12.91;60.88;96526.50;8328941;28;20265;-61
2021/03/11 15:18:32;;;;;;;2.90;0.70;;;;;;;12.94;60.75;96541.84;8329668;28;20224;-60
2021/03/11 15:22:34;;;;;;;3.43;0.60;;;;;;;12.89;61.06;96542.19;8329344;28;20212;-60
2021/03/11 15:26:37;;;;;;;1.53;0.60;;;;;;;12.81;61.21;96526.38;8328207;28;20540;-61
2021/03/11 15:30:39;;;;;;;11.53;0.70;;;;;;;12.77;60.63;96526.72;8328221;28;20235;-61
2021/03/11 15:34:41;;;;;;;1.27;0.70;;;;;;;12.68;61.72;96562.00;8328210;28;20232;-60
2021/03/11 15:38:45;;;;;;;0.97;0.60;;;;;;;12.70;61.49;96542.75;8328381;28;20300;-59
2021/03/11 15:42:47;;;;;;;4.40;1.53;;;;;;;12.48;62.37;96534.94;8328533;28;20299;-60
2021/03/11 15:46:50;;;;;;;5.73;1.80;;;;;;;12.27;64.21;96530.38;8328363;28;20292;-60
2021/03/11 15:50:52;;;;;;;1.63;1.53;;;;;;;12.38;64.28;96527.00;8329564;28;20204;-60
2021/03/11 15:54:54;;;;;;;1.80;0.80;;;;;;;12.27;64.71;96509.63;8328553;28;20219;-60
2021/03/11 15:58:56;;;;;;;0.60;0.40;;;;;;;12.26;63.41;96518.38;8327933;28;20262;-63
2021/03/11 16:02:59;;;;;;;1.47;0.47;;;;;;;12.33;63.09;96510.94;8329291;28;20208;-64
2021/03/11 16:07:03;;;;;;;1.23;0.60;;;;;;;12.31;63.02;96555.16;8328387;28;20193;-62
2021/03/11 16:11:05;;;;;;;1.23;0.80;;;;;;;12.18;63.70;96545.81;8328656;28;20237;-64
2021/03/11 16:15:08;;;;;;;2.10;1.30;;;;;;;12.31;63.10;96544.78;8328013;28;20208;-63
2021/03/11 16:19:11;;;;;;;7.77;1.50;;;;;;;12.47;68.13;96513.34;8328541;28;20229;-62
2021/03/11 16:23:13;;;;;;;9.47;1.57;;;;;;;13.58;67.07;96502.22;8328026;28;20204;-63
2021/03/11 16:27:15;;;;;;;2.13;0.97;;;;;;;14.17;61.84;96507.94;8328896;28;20300;-64
2021/03/11 16:31:17;;;;;;;3.23;0.73;;;;;;;14.06;55.62;96504.41;8327554;28;20224;-62
2021/03/11 16:35:20;;;;;;;1.63;0.70;;;;;;;14.26;53.69;96512.38;8328431;28;20236;-61
2021/03/11 16:39:21;;;;;;;4.63;0.60;;;;;;;13.96;52.90;96495.69;8328016;28;20232;-63
2021/03/11 16:43:23;;;;;;;2.20;0.80;;;;;;;14.03;50.61;96490.81;8333782;28;20204;-65
2021/03/11 16:47:26;;;;;;;3.20;0.90;;;;;;;14.03;50.47;96493.41;8334796;28;20212;-65
2021/03/11 16:51:28;;;;;;;1.93;0.80;;;;;;;14.03;51.12;96489.06;8333462;28;20694;-61
2021/03/11 16:55:31;;;;;;;4.87;1.00;;;;;;;14.23;53.04;96489.19;8333946;28;20262;-62
2021/03/11 16:59:33;;;;;;;2.93;1.80;;;;;;;14.30;50.05;96510.31;8333578;28;20208;-61
2021/03/11 17:03:35;;;;;;;5.27;2.10;;;;;;;14.50;49.89;96511.28;8335188;28;20275;-61
2021/03/11 17:07:52;;;;;;;3.40;1.70;;;;;;;14.28;50.28;96507.88;8333446;28;20299;-61
2021/03/11 17:11:54;;;;;;;3.13;1.03;;;;;;;13.88;48.34;96508.53;8333968;28;20229;-66
2021/03/11 17:15:56;;;;;;;2.33;1.10;;;;;;;13.21;50.06;96509.47;8333568;28;20676;-65
2021/03/11 17:20:00;;;;;;;3.43;1.40;;;;;;;12.97;51.19;96507.81;8333317;28;20205;-65
2021/03/11 17:24:03;;;;;;;32.73;4.33;;;;;;;12.69;52.46;96522.09;8334434;28;20557;-65
2021/03/11 17:28:05;;;;;;;4.40;0.70;;;;;;;12.51;53.92;96516.53;8333059;28;20220;-65
2021/03/11 17:32:07;;;;;;;171.13;3.33;;;;;;;12.29;55.01;96525.09;8330791;28;20208;-65
2021/03/11 17:36:10;;;;;;;2.53;0.90;;;;;;;12.29;55.98;96528.50;8331640;28;20235;-65
2021/03/11 17:40:13;;;;;;;5.67;1.37;;;;;;;12.24;58.57;96566.97;8332624;28;20215;-65
2021/03/11 17:44:15;;;;;;;2.53;1.60;;;;;;;11.96;61.05;96585.47;8331602;28;20201;-66
2021/03/11 17:48:17;;;;;;;2.67;1.73;;;;;;;11.90;60.87;96590.16;8331585;28;20228;-66
2021/03/11 17:52:19;;;;;;;2.40;1.63;;;;;;;11.90;61.25;96587.56;8329766;28;20208;-64
2021/03/11 17:56:22;;;;;;;9.60;2.00;;;;;;;11.80;61.34;96612.44;8331330;28;20223;-62
2021/03/11 18:00:24;;;;;;;5.70;2.27;;;;;;;11.73;62.76;96580.13;8331652;28;20614;-62
2021/03/11 18:04:26;;;;;;;3.67;1.70;;;;;;;11.66;63.23;96561.56;8329842;28;20209;-62
2021/03/11 18:08:35;;;;;;;3.70;2.03;;;;;;;11.71;62.46;96563.84;8334035;28;20206;-62
2021/03/11 18:12:38;;;;;;;3.80;1.60;;;;;;;11.59;63.40;96567.31;8330951;28;20236;-63
2021/03/11 18:16:42;;;;;;;1.80;1.10;;;;;;;11.51;63.48;96580.81;8331619;28;20251;-66
2021/03/11 18:20:44;;;;;;;5.23;2.50;;;;;;;11.35;64.14;96594.03;8330502;28;20357;-64
2021/03/11 18:24:46;;;;;;;4.27;1.67;;;;;;;11.31;64.29;96588.22;8331464;28;20208;-64
2021/03/11 18:28:49;;;;;;;2.43;1.37;;;;;;;11.40;64.09;96581.53;8330134;28;20274;-62
2021/03/11 18:32:51;;;;;;;3.17;1.37;;;;;;;11.45;63.71;96579.47;8330628;28;20359;-63
2021/03/11 18:36:53;;;;;;;3.53;1.60;;;;;;;11.43;63.90;96576.16;8329617;28;20235;-64
2021/03/11 18:40:56;;;;;;;3.80;1.67;;;;;;;11.49;63.75;96587.88;8330490;28;20223;-64
2021/03/11 18:44:59;;;;;;;4.03;1.70;;;;;;;11.24;63.90;96599.94;8330108;28;20259;-62
2021/03/11 18:49:00;;;;;;;5.30;1.83;;;;;;;11.40;64.03;96612.66;8329929;28;20208;-66
2021/03/11 18:53:02;;;;;;;5.03;1.63;;;;;;;10.89;64.66;96659.28;8330344;28;20200;-63
2021/03/11 18:57:05;;;;;;;35.97;3.90;;;;;;;11.92;70.06;96662.69;8330768;28;20347;-64